sensor_id;sensor_type;location;lat;lon;timestamp;P1;durP1;ratioP1;P2;durP2;ratioP2
65234;SDS011;51820;48.374;10.930;2022-08-21T00:00:51;7.97;;;2.10;;
65234;SDS011;51820;48.374;10.930;2022-08-21T00:03:19;6.03;;;1.98;;
65234;SDS011;51820;48.374;10.930;2022-08-21T00:05:49;7.53;;;2.17;;
65234;SDS011;51820;48.374;10.930;2022-08-21T00:08:18;9.00;;;2.33;;
65234;SDS011;51820;48.374;10.930;2022-08-21T00:10:48;6.18;;;2.10;;
65234;SDS011;51820;48.374;10.930;2022-08-21T00:13:17;7.17;;;2.10;;
65234;SDS011;51820;48.374;10.930;2022-08-21T00:15:46;7.45;;;2.25;;
65234;SDS011;51820;48.374;10.930;2022-08-21T00:18:15;5.65;;;2.28;;
65234;SDS011;51820;48.374;10.930;2022-08-21T00:20:44;7.30;;;2.50;;
65234;SDS011;51820;48.374;10.930;2022-08-21T00:23:14;5.40;;;2.05;;
65234;SDS011;51820;48.374;10.930;2022-08-21T00:25:43;5.20;;;2.13;;
65234;SDS011;51820;48.374;10.930;2022-08-21T00:28:14;10.88;;;2.28;;
65234;SDS011;51820;48.374;10.930;2022-08-21T00:30:42;7.78;;;1.90;;
65234;SDS011;51820;48.374;10.930;2022-08-21T00:33:11;4.55;;;1.75;;
65234;SDS011;51820;48.374;10.930;2022-08-21T00:35:40;4.82;;;1.70;;
65234;SDS011;51820;48.374;10.930;2022-08-21T00:38:09;4.70;;;1.73;;
65234;SDS011;51820;48.374;10.930;2022-08-21T00:40:40;4.43;;;1.60;;
65234;SDS011;51820;48.374;10.930;2022-08-21T00:43:12;5.13;;;1.70;;
65234;SDS011;51820;48.374;10.930;2022-08-21T00:45:45;5.55;;;1.60;;
65234;SDS011;51820;48.374;10.930;2022-08-21T00:48:13;4.43;;;1.65;;
65234;SDS011;51820;48.374;10.930;2022-08-21T00:50:44;4.33;;;1.70;;
65234;SDS011;51820;48.374;10.930;2022-08-21T00:53:17;4.50;;;1.70;;
65234;SDS011;51820;48.374;10.930;2022-08-21T00:55:47;4.70;;;1.70;;
65234;SDS011;51820;48.374;10.930;2022-08-21T00:58:18;4.90;;;1.45;;
65234;SDS011;51820;48.374;10.930;2022-08-21T01:00:47;5.03;;;1.65;;
65234;SDS011;51820;48.374;10.930;2022-08-21T01:03:18;5.33;;;1.50;;
65234;SDS011;51820;48.374;10.930;2022-08-21T01:05:49;5.45;;;1.77;;
65234;SDS011;51820;48.374;10.930;2022-08-21T01:08:19;7.03;;;2.30;;
65234;SDS011;51820;48.374;10.930;2022-08-21T01:10:48;6.00;;;1.80;;
65234;SDS011;51820;48.374;10.930;2022-08-21T01:13:25;5.38;;;2.10;;
65234;SDS011;51820;48.374;10.930;2022-08-21T01:15:58;5.00;;;1.70;;
65234;SDS011;51820;48.374;10.930;2022-08-21T01:18:27;5.28;;;1.80;;
65234;SDS011;51820;48.374;10.930;2022-08-21T01:21:05;4.55;;;1.80;;
65234;SDS011;51820;48.374;10.930;2022-08-21T01:23:39;7.00;;;1.88;;
65234;SDS011;51820;48.374;10.930;2022-08-21T01:26:11;5.97;;;1.98;;
65234;SDS011;51820;48.374;10.930;2022-08-21T01:28:41;4.10;;;1.50;;
65234;SDS011;51820;48.374;10.930;2022-08-21T01:31:13;4.88;;;1.73;;
65234;SDS011;51820;48.374;10.930;2022-08-21T01:33:51;4.35;;;1.70;;
65234;SDS011;51820;48.374;10.930;2022-08-21T01:36:21;4.72;;;1.67;;
65234;SDS011;51820;48.374;10.930;2022-08-21T01:38:50;5.70;;;1.70;;
65234;SDS011;51820;48.374;10.930;2022-08-21T01:41:18;5.20;;;1.50;;
65234;SDS011;51820;48.374;10.930;2022-08-21T01:43:47;4.40;;;1.63;;
65234;SDS011;51820;48.374;10.930;2022-08-21T01:46:15;4.90;;;1.95;;
65234;SDS011;51820;48.374;10.930;2022-08-21T01:48:44;4.65;;;1.58;;
65234;SDS011;51820;48.374;10.930;2022-08-21T01:51:13;6.13;;;1.70;;
65234;SDS011;51820;48.374;10.930;2022-08-21T01:53:42;4.57;;;1.40;;
65234;SDS011;51820;48.374;10.930;2022-08-21T01:56:11;5.45;;;1.63;;
65234;SDS011;51820;48.374;10.930;2022-08-21T01:58:42;4.57;;;1.80;;
65234;SDS011;51820;48.374;10.930;2022-08-21T02:01:13;7.22;;;1.73;;
65234;SDS011;51820;48.374;10.930;2022-08-21T02:03:42;6.63;;;1.90;;
65234;SDS011;51820;48.374;10.930;2022-08-21T02:06:12;5.37;;;1.90;;
65234;SDS011;51820;48.374;10.930;2022-08-21T02:08:45;6.65;;;1.92;;
65234;SDS011;51820;48.374;10.930;2022-08-21T02:11:16;7.65;;;2.00;;
65234;SDS011;51820;48.374;10.930;2022-08-21T02:13:45;6.78;;;2.20;;
65234;SDS011;51820;48.374;10.930;2022-08-21T02:16:13;6.03;;;2.25;;
65234;SDS011;51820;48.374;10.930;2022-08-21T02:18:45;6.00;;;1.90;;
65234;SDS011;51820;48.374;10.930;2022-08-21T02:21:13;6.07;;;2.10;;
65234;SDS011;51820;48.374;10.930;2022-08-21T02:23:42;5.65;;;2.00;;
65234;SDS011;51820;48.374;10.930;2022-08-21T02:26:11;5.10;;;1.80;;
65234;SDS011;51820;48.374;10.930;2022-08-21T02:28:40;5.00;;;1.90;;
65234;SDS011;51820;48.374;10.930;2022-08-21T02:31:08;7.20;;;2.20;;
65234;SDS011;51820;48.374;10.930;2022-08-21T02:33:37;5.30;;;1.73;;
65234;SDS011;51820;48.374;10.930;2022-08-21T02:36:06;4.75;;;2.10;;
65234;SDS011;51820;48.374;10.930;2022-08-21T02:38:36;7.15;;;1.80;;
65234;SDS011;51820;48.374;10.930;2022-08-21T02:41:06;4.45;;;1.83;;
65234;SDS011;51820;48.374;10.930;2022-08-21T02:43:38;4.60;;;1.93;;
65234;SDS011;51820;48.374;10.930;2022-08-21T02:46:06;4.88;;;1.60;;
65234;SDS011;51820;48.374;10.930;2022-08-21T02:48:36;5.07;;;1.73;;
65234;SDS011;51820;48.374;10.930;2022-08-21T02:51:08;4.80;;;1.70;;
65234;SDS011;51820;48.374;10.930;2022-08-21T02:53:39;5.20;;;2.00;;
65234;SDS011;51820;48.374;10.930;2022-08-21T02:56:09;4.90;;;1.73;;
65234;SDS011;51820;48.374;10.930;2022-08-21T02:58:41;4.30;;;1.80;;
65234;SDS011;51820;48.374;10.930;2022-08-21T03:01:14;5.93;;;2.13;;
65234;SDS011;51820;48.374;10.930;2022-08-21T03:03:43;5.05;;;1.77;;
65234;SDS011;51820;48.374;10.930;2022-08-21T03:06:13;6.40;;;1.98;;
65234;SDS011;51820;48.374;10.930;2022-08-21T03:08:42;6.53;;;1.80;;
65234;SDS011;51820;48.374;10.930;2022-08-21T03:11:11;5.25;;;1.80;;
65234;SDS011;51820;48.374;10.930;2022-08-21T03:13:42;4.88;;;2.08;;
65234;SDS011;51820;48.374;10.930;2022-08-21T03:16:10;7.00;;;2.08;;
65234;SDS011;51820;48.374;10.930;2022-08-21T03:18:39;8.02;;;2.72;;
65234;SDS011;51820;48.374;10.930;2022-08-21T03:21:07;6.50;;;2.00;;
65234;SDS011;51820;48.374;10.930;2022-08-21T03:23:37;5.95;;;2.03;;
65234;SDS011;51820;48.374;10.930;2022-08-21T03:26:06;5.35;;;2.20;;
65234;SDS011;51820;48.374;10.930;2022-08-21T03:28:34;5.55;;;2.00;;
65234;SDS011;51820;48.374;10.930;2022-08-21T03:31:04;7.97;;;2.75;;
65234;SDS011;51820;48.374;10.930;2022-08-21T03:33:32;8.50;;;3.10;;
65234;SDS011;51820;48.374;10.930;2022-08-21T03:36:02;8.05;;;3.13;;
65234;SDS011;51820;48.374;10.930;2022-08-21T03:38:32;8.82;;;2.80;;
65234;SDS011;51820;48.374;10.930;2022-08-21T03:41:02;6.13;;;2.40;;
65234;SDS011;51820;48.374;10.930;2022-08-21T03:43:34;4.95;;;2.00;;
65234;SDS011;51820;48.374;10.930;2022-08-21T03:46:03;7.43;;;2.23;;
65234;SDS011;51820;48.374;10.930;2022-08-21T03:48:34;5.90;;;2.50;;
65234;SDS011;51820;48.374;10.930;2022-08-21T03:51:03;8.55;;;2.40;;
65234;SDS011;51820;48.374;10.930;2022-08-21T03:53:32;5.90;;;2.03;;
65234;SDS011;51820;48.374;10.930;2022-08-21T03:56:01;6.57;;;2.05;;
65234;SDS011;51820;48.374;10.930;2022-08-21T03:58:30;6.07;;;1.97;;
65234;SDS011;51820;48.374;10.930;2022-08-21T04:00:59;6.00;;;1.67;;
65234;SDS011;51820;48.374;10.930;2022-08-21T04:03:29;4.38;;;1.83;;
65234;SDS011;51820;48.374;10.930;2022-08-21T04:05:57;5.50;;;2.00;;
65234;SDS011;51820;48.374;10.930;2022-08-21T04:08:28;5.22;;;1.80;;
65234;SDS011;51820;48.374;10.930;2022-08-21T04:10:57;5.00;;;1.80;;
65234;SDS011;51820;48.374;10.930;2022-08-21T04:13:25;7.72;;;2.00;;
65234;SDS011;51820;48.374;10.930;2022-08-21T04:15:55;5.55;;;2.10;;
65234;SDS011;51820;48.374;10.930;2022-08-21T04:18:24;4.40;;;1.90;;
65234;SDS011;51820;48.374;10.930;2022-08-21T04:20:54;5.03;;;1.90;;
65234;SDS011;51820;48.374;10.930;2022-08-21T04:23:25;7.30;;;2.00;;
65234;SDS011;51820;48.374;10.930;2022-08-21T04:25:54;5.38;;;1.98;;
65234;SDS011;51820;48.374;10.930;2022-08-21T04:28:23;9.43;;;2.10;;
65234;SDS011;51820;48.374;10.930;2022-08-21T04:30:58;5.57;;;1.98;;
65234;SDS011;51820;48.374;10.930;2022-08-21T04:33:28;6.00;;;2.13;;
65234;SDS011;51820;48.374;10.930;2022-08-21T04:35:59;5.40;;;1.83;;
65234;SDS011;51820;48.374;10.930;2022-08-21T04:38:29;5.65;;;1.65;;
65234;SDS011;51820;48.374;10.930;2022-08-21T04:41:03;5.50;;;2.38;;
65234;SDS011;51820;48.374;10.930;2022-08-21T04:43:33;8.93;;;2.50;;
65234;SDS011;51820;48.374;10.930;2022-08-21T04:46:22;5.78;;;1.80;;
65234;SDS011;51820;48.374;10.930;2022-08-21T04:48:51;10.93;;;2.07;;
65234;SDS011;51820;48.374;10.930;2022-08-21T04:51:21;4.72;;;2.03;;
65234;SDS011;51820;48.374;10.930;2022-08-21T04:53:53;5.80;;;2.38;;
65234;SDS011;51820;48.374;10.930;2022-08-21T04:56:25;5.82;;;2.10;;
65234;SDS011;51820;48.374;10.930;2022-08-21T04:58:58;5.60;;;1.95;;
65234;SDS011;51820;48.374;10.930;2022-08-21T05:01:30;7.97;;;2.07;;
65234;SDS011;51820;48.374;10.930;2022-08-21T05:04:02;5.53;;;2.10;;
65234;SDS011;51820;48.374;10.930;2022-08-21T05:06:35;6.65;;;2.58;;
65234;SDS011;51820;48.374;10.930;2022-08-21T05:09:05;5.20;;;2.10;;
65234;SDS011;51820;48.374;10.930;2022-08-21T05:11:35;8.60;;;2.30;;
65234;SDS011;51820;48.374;10.930;2022-08-21T05:14:04;5.60;;;2.10;;
65234;SDS011;51820;48.374;10.930;2022-08-21T05:16:32;4.60;;;1.90;;
65234;SDS011;51820;48.374;10.930;2022-08-21T05:19:03;6.18;;;2.35;;
65234;SDS011;51820;48.374;10.930;2022-08-21T05:21:31;7.03;;;2.30;;
65234;SDS011;51820;48.374;10.930;2022-08-21T05:24:01;4.57;;;1.77;;
65234;SDS011;51820;48.374;10.930;2022-08-21T05:26:30;5.00;;;2.00;;
65234;SDS011;51820;48.374;10.930;2022-08-21T05:29:10;5.13;;;2.03;;
65234;SDS011;51820;48.374;10.930;2022-08-21T05:31:40;7.80;;;2.40;;
65234;SDS011;51820;48.374;10.930;2022-08-21T05:34:08;6.65;;;2.30;;
65234;SDS011;51820;48.374;10.930;2022-08-21T05:36:41;7.03;;;2.55;;
65234;SDS011;51820;48.374;10.930;2022-08-21T05:39:11;7.00;;;2.23;;
65234;SDS011;51820;48.374;10.930;2022-08-21T05:41:39;8.85;;;2.33;;
65234;SDS011;51820;48.374;10.930;2022-08-21T05:44:07;6.10;;;2.20;;
65234;SDS011;51820;48.374;10.930;2022-08-21T05:46:36;7.32;;;1.98;;
65234;SDS011;51820;48.374;10.930;2022-08-21T05:49:05;6.00;;;1.90;;
65234;SDS011;51820;48.374;10.930;2022-08-21T05:51:33;5.53;;;1.70;;
65234;SDS011;51820;48.374;10.930;2022-08-21T05:54:02;6.20;;;1.80;;
65234;SDS011;51820;48.374;10.930;2022-08-21T05:56:32;8.10;;;2.60;;
65234;SDS011;51820;48.374;10.930;2022-08-21T05:59:00;5.25;;;1.95;;
65234;SDS011;51820;48.374;10.930;2022-08-21T06:01:34;5.97;;;2.00;;
65234;SDS011;51820;48.374;10.930;2022-08-21T06:04:03;5.47;;;2.10;;
65234;SDS011;51820;48.374;10.930;2022-08-21T06:06:32;5.15;;;1.90;;
65234;SDS011;51820;48.374;10.930;2022-08-21T06:09:00;5.18;;;1.95;;
65234;SDS011;51820;48.374;10.930;2022-08-21T06:11:31;8.45;;;2.42;;
65234;SDS011;51820;48.374;10.930;2022-08-21T06:14:00;9.85;;;2.38;;
65234;SDS011;51820;48.374;10.930;2022-08-21T06:16:28;5.00;;;1.90;;
65234;SDS011;51820;48.374;10.930;2022-08-21T06:18:57;5.68;;;2.17;;
65234;SDS011;51820;48.374;10.930;2022-08-21T06:21:28;8.90;;;2.67;;
65234;SDS011;51820;48.374;10.930;2022-08-21T06:23:56;6.32;;;2.10;;
65234;SDS011;51820;48.374;10.930;2022-08-21T06:26:25;5.43;;;2.20;;
65234;SDS011;51820;48.374;10.930;2022-08-21T06:28:55;9.63;;;2.27;;
65234;SDS011;51820;48.374;10.930;2022-08-21T06:31:24;5.50;;;1.98;;
65234;SDS011;51820;48.374;10.930;2022-08-21T06:33:54;9.00;;;2.55;;
65234;SDS011;51820;48.374;10.930;2022-08-21T06:36:22;7.50;;;2.53;;
65234;SDS011;51820;48.374;10.930;2022-08-21T06:38:50;9.25;;;2.25;;
65234;SDS011;51820;48.374;10.930;2022-08-21T06:41:19;5.67;;;1.97;;
65234;SDS011;51820;48.374;10.930;2022-08-21T06:43:52;6.72;;;1.80;;
65234;SDS011;51820;48.374;10.930;2022-08-21T06:46:22;10.07;;;2.25;;
65234;SDS011;51820;48.374;10.930;2022-08-21T06:48:50;6.93;;;2.17;;
65234;SDS011;51820;48.374;10.930;2022-08-21T06:51:19;6.60;;;2.25;;
65234;SDS011;51820;48.374;10.930;2022-08-21T06:53:47;6.20;;;2.20;;
65234;SDS011;51820;48.374;10.930;2022-08-21T06:56:16;7.13;;;2.00;;
65234;SDS011;51820;48.374;10.930;2022-08-21T06:58:44;6.68;;;2.38;;
65234;SDS011;51820;48.374;10.930;2022-08-21T07:01:15;4.80;;;1.98;;
65234;SDS011;51820;48.374;10.930;2022-08-21T07:03:45;7.53;;;2.20;;
65234;SDS011;51820;48.374;10.930;2022-08-21T07:06:13;6.07;;;2.47;;
65234;SDS011;51820;48.374;10.930;2022-08-21T07:08:42;6.53;;;2.67;;
65234;SDS011;51820;48.374;10.930;2022-08-21T07:11:12;7.43;;;3.42;;
65234;SDS011;51820;48.374;10.930;2022-08-21T07:13:44;7.65;;;2.80;;
65234;SDS011;51820;48.374;10.930;2022-08-21T07:16:12;8.02;;;2.95;;
65234;SDS011;51820;48.374;10.930;2022-08-21T07:18:41;6.67;;;2.90;;
65234;SDS011;51820;48.374;10.930;2022-08-21T07:21:11;5.30;;;2.30;;
65234;SDS011;51820;48.374;10.930;2022-08-21T07:23:40;6.60;;;2.78;;
65234;SDS011;51820;48.374;10.930;2022-08-21T07:26:09;6.93;;;2.50;;
65234;SDS011;51820;48.374;10.930;2022-08-21T07:28:42;7.07;;;2.70;;
65234;SDS011;51820;48.374;10.930;2022-08-21T07:31:10;7.83;;;2.70;;
65234;SDS011;51820;48.374;10.930;2022-08-21T07:33:42;7.78;;;2.70;;
65234;SDS011;51820;48.374;10.930;2022-08-21T07:36:12;7.03;;;2.55;;
65234;SDS011;51820;48.374;10.930;2022-08-21T07:38:40;6.30;;;2.53;;
65234;SDS011;51820;48.374;10.930;2022-08-21T07:41:10;9.30;;;3.03;;
65234;SDS011;51820;48.374;10.930;2022-08-21T07:43:41;8.83;;;2.80;;
65234;SDS011;51820;48.374;10.930;2022-08-21T07:46:11;6.40;;;3.25;;
65234;SDS011;51820;48.374;10.930;2022-08-21T07:48:40;8.50;;;3.05;;
65234;SDS011;51820;48.374;10.930;2022-08-21T07:51:08;6.82;;;3.20;;
65234;SDS011;51820;48.374;10.930;2022-08-21T07:53:39;6.15;;;3.17;;
65234;SDS011;51820;48.374;10.930;2022-08-21T07:56:08;9.63;;;3.90;;
65234;SDS011;51820;48.374;10.930;2022-08-21T07:58:37;14.73;;;5.78;;
65234;SDS011;51820;48.374;10.930;2022-08-21T08:01:05;8.70;;;3.80;;
65234;SDS011;51820;48.374;10.930;2022-08-21T08:03:34;10.73;;;5.32;;
65234;SDS011;51820;48.374;10.930;2022-08-21T08:06:02;10.20;;;4.43;;
65234;SDS011;51820;48.374;10.930;2022-08-21T08:08:31;8.60;;;3.77;;
65234;SDS011;51820;48.374;10.930;2022-08-21T08:11:01;9.88;;;3.70;;
65234;SDS011;51820;48.374;10.930;2022-08-21T08:13:29;8.85;;;4.00;;
65234;SDS011;51820;48.374;10.930;2022-08-21T08:15:58;10.85;;;3.85;;
65234;SDS011;51820;48.374;10.930;2022-08-21T08:18:27;7.75;;;4.07;;
65234;SDS011;51820;48.374;10.930;2022-08-21T08:20:55;9.03;;;3.40;;
65234;SDS011;51820;48.374;10.930;2022-08-21T08:23:24;7.93;;;3.70;;
65234;SDS011;51820;48.374;10.930;2022-08-21T08:25:53;8.18;;;3.83;;
65234;SDS011;51820;48.374;10.930;2022-08-21T08:28:23;9.02;;;3.47;;
65234;SDS011;51820;48.374;10.930;2022-08-21T08:30:52;9.25;;;3.90;;
65234;SDS011;51820;48.374;10.930;2022-08-21T08:33:20;8.70;;;4.20;;
65234;SDS011;51820;48.374;10.930;2022-08-21T08:35:49;8.93;;;4.15;;
65234;SDS011;51820;48.374;10.930;2022-08-21T08:38:19;7.75;;;3.90;;
65234;SDS011;51820;48.374;10.930;2022-08-21T08:40:51;8.63;;;4.00;;
65234;SDS011;51820;48.374;10.930;2022-08-21T08:43:28;9.52;;;4.60;;
65234;SDS011;51820;48.374;10.930;2022-08-21T08:46:02;9.27;;;4.20;;
65234;SDS011;51820;48.374;10.930;2022-08-21T08:48:39;8.52;;;4.00;;
65234;SDS011;51820;48.374;10.930;2022-08-21T08:51:19;7.50;;;3.85;;
65234;SDS011;51820;48.374;10.930;2022-08-21T08:53:52;10.05;;;3.83;;
65234;SDS011;51820;48.374;10.930;2022-08-21T08:56:26;7.57;;;3.80;;
65234;SDS011;51820;48.374;10.930;2022-08-21T08:58:59;9.60;;;3.50;;
65234;SDS011;51820;48.374;10.930;2022-08-21T09:01:33;6.28;;;3.50;;
65234;SDS011;51820;48.374;10.930;2022-08-21T09:04:04;6.60;;;3.70;;
65234;SDS011;51820;48.374;10.930;2022-08-21T09:06:38;7.32;;;3.97;;
65234;SDS011;51820;48.374;10.930;2022-08-21T09:09:22;11.30;;;5.85;;
65234;SDS011;51820;48.374;10.930;2022-08-21T09:11:58;8.10;;;4.23;;
65234;SDS011;51820;48.374;10.930;2022-08-21T09:14:41;8.57;;;4.05;;
65234;SDS011;51820;48.374;10.930;2022-08-21T09:17:23;7.65;;;4.05;;
65234;SDS011;51820;48.374;10.930;2022-08-21T09:20:08;9.95;;;3.50;;
65234;SDS011;51820;48.374;10.930;2022-08-21T09:22:47;8.40;;;4.28;;
65234;SDS011;51820;48.374;10.930;2022-08-21T09:25:26;8.60;;;3.70;;
65234;SDS011;51820;48.374;10.930;2022-08-21T09:27:58;9.95;;;4.13;;
65234;SDS011;51820;48.374;10.930;2022-08-21T09:30:30;6.95;;;3.45;;
65234;SDS011;51820;48.374;10.930;2022-08-21T09:32:59;7.10;;;3.70;;
65234;SDS011;51820;48.374;10.930;2022-08-21T09:35:28;6.80;;;3.50;;
65234;SDS011;51820;48.374;10.930;2022-08-21T09:37:57;7.83;;;3.53;;
65234;SDS011;51820;48.374;10.930;2022-08-21T09:40:31;9.27;;;3.70;;
65234;SDS011;51820;48.374;10.930;2022-08-21T09:43:02;8.55;;;3.47;;
65234;SDS011;51820;48.374;10.930;2022-08-21T09:45:35;7.28;;;3.28;;
65234;SDS011;51820;48.374;10.930;2022-08-21T09:48:11;7.90;;;3.38;;
65234;SDS011;51820;48.374;10.930;2022-08-21T09:50:40;6.97;;;3.20;;
65234;SDS011;51820;48.374;10.930;2022-08-21T09:53:16;6.13;;;3.03;;
65234;SDS011;51820;48.374;10.930;2022-08-21T09:55:47;7.65;;;3.60;;
65234;SDS011;51820;48.374;10.930;2022-08-21T09:58:37;7.03;;;3.80;;
65234;SDS011;51820;48.374;10.930;2022-08-21T10:01:13;8.35;;;3.40;;
65234;SDS011;51820;48.374;10.930;2022-08-21T10:03:42;11.33;;;3.03;;
65234;SDS011;51820;48.374;10.930;2022-08-21T10:06:20;6.72;;;3.70;;
65234;SDS011;51820;48.374;10.930;2022-08-21T10:08:50;8.32;;;3.58;;
65234;SDS011;51820;48.374;10.930;2022-08-21T10:11:19;10.18;;;3.10;;
65234;SDS011;51820;48.374;10.930;2022-08-21T10:13:56;7.15;;;2.80;;
65234;SDS011;51820;48.374;10.930;2022-08-21T10:16:33;6.53;;;3.30;;
65234;SDS011;51820;48.374;10.930;2022-08-21T10:19:12;7.22;;;2.92;;
65234;SDS011;51820;48.374;10.930;2022-08-21T10:21:57;11.52;;;3.50;;
65234;SDS011;51820;48.374;10.930;2022-08-21T10:24:31;6.25;;;3.40;;
65234;SDS011;51820;48.374;10.930;2022-08-21T10:27:10;8.20;;;3.50;;
65234;SDS011;51820;48.374;10.930;2022-08-21T10:29:46;8.77;;;3.10;;
65234;SDS011;51820;48.374;10.930;2022-08-21T10:32:23;8.98;;;3.30;;
65234;SDS011;51820;48.374;10.930;2022-08-21T10:35:00;6.47;;;3.13;;
65234;SDS011;51820;48.374;10.930;2022-08-21T10:37:37;6.63;;;2.83;;
65234;SDS011;51820;48.374;10.930;2022-08-21T10:40:15;8.02;;;3.10;;
65234;SDS011;51820;48.374;10.930;2022-08-21T10:42:56;6.07;;;3.00;;
65234;SDS011;51820;48.374;10.930;2022-08-21T10:45:36;6.55;;;3.00;;
65234;SDS011;51820;48.374;10.930;2022-08-21T10:48:16;6.80;;;3.17;;
65234;SDS011;51820;48.374;10.930;2022-08-21T10:50:50;8.10;;;2.83;;
65234;SDS011;51820;48.374;10.930;2022-08-21T10:53:28;8.70;;;2.70;;
65234;SDS011;51820;48.374;10.930;2022-08-21T10:56:05;6.93;;;2.67;;
65234;SDS011;51820;48.374;10.930;2022-08-21T10:58:45;6.45;;;2.85;;
65234;SDS011;51820;48.374;10.930;2022-08-21T11:01:28;6.22;;;3.00;;
65234;SDS011;51820;48.374;10.930;2022-08-21T11:04:07;5.82;;;2.83;;
65234;SDS011;51820;48.374;10.930;2022-08-21T11:06:40;7.70;;;3.10;;
65234;SDS011;51820;48.374;10.930;2022-08-21T11:09:13;6.90;;;2.87;;
65234;SDS011;51820;48.374;10.930;2022-08-21T11:11:45;8.02;;;2.80;;
65234;SDS011;51820;48.374;10.930;2022-08-21T11:14:39;8.20;;;2.92;;
65234;SDS011;51820;48.374;10.930;2022-08-21T11:17:16;6.57;;;2.67;;
65234;SDS011;51820;48.374;10.930;2022-08-21T11:19:52;7.47;;;2.58;;
65234;SDS011;51820;48.374;10.930;2022-08-21T11:22:26;8.00;;;2.73;;
65234;SDS011;51820;48.374;10.930;2022-08-21T11:25:03;8.10;;;2.60;;
65234;SDS011;51820;48.374;10.930;2022-08-21T11:27:38;6.32;;;2.72;;
65234;SDS011;51820;48.374;10.930;2022-08-21T11:30:11;6.50;;;2.63;;
65234;SDS011;51820;48.374;10.930;2022-08-21T11:35:33;7.90;;;2.50;;
65234;SDS011;51820;48.374;10.930;2022-08-21T11:38:13;9.52;;;3.00;;
65234;SDS011;51820;48.374;10.930;2022-08-21T11:40:53;6.15;;;2.42;;
65234;SDS011;51820;48.374;10.930;2022-08-21T11:43:34;8.80;;;2.50;;
65234;SDS011;51820;48.374;10.930;2022-08-21T11:46:14;8.05;;;2.50;;
65234;SDS011;51820;48.374;10.930;2022-08-21T11:48:55;6.57;;;2.23;;
65234;SDS011;51820;48.374;10.930;2022-08-21T11:51:36;13.85;;;2.30;;
65234;SDS011;51820;48.374;10.930;2022-08-21T11:54:11;6.10;;;2.00;;
65234;SDS011;51820;48.374;10.930;2022-08-21T11:56:48;6.30;;;2.30;;
65234;SDS011;51820;48.374;10.930;2022-08-21T11:59:23;6.20;;;2.17;;
65234;SDS011;51820;48.374;10.930;2022-08-21T12:02:06;5.03;;;2.17;;
65234;SDS011;51820;48.374;10.930;2022-08-21T12:04:42;6.47;;;2.35;;
65234;SDS011;51820;48.374;10.930;2022-08-21T12:07:17;7.18;;;2.20;;
65234;SDS011;51820;48.374;10.930;2022-08-21T12:09:58;7.90;;;2.70;;
65234;SDS011;51820;48.374;10.930;2022-08-21T12:12:28;7.47;;;2.20;;
65234;SDS011;51820;48.374;10.930;2022-08-21T12:15:05;6.83;;;2.00;;
65234;SDS011;51820;48.374;10.930;2022-08-21T12:17:53;6.18;;;2.10;;
65234;SDS011;51820;48.374;10.930;2022-08-21T12:20:27;4.55;;;1.70;;
65234;SDS011;51820;48.374;10.930;2022-08-21T12:23:05;6.10;;;1.75;;
65234;SDS011;51820;48.374;10.930;2022-08-21T12:25:44;5.97;;;2.03;;
65234;SDS011;51820;48.374;10.930;2022-08-21T12:28:16;9.53;;;2.30;;
65234;SDS011;51820;48.374;10.930;2022-08-21T12:30:50;10.30;;;2.05;;
65234;SDS011;51820;48.374;10.930;2022-08-21T12:33:24;5.72;;;2.00;;
65234;SDS011;51820;48.374;10.930;2022-08-21T12:36:02;8.35;;;2.70;;
65234;SDS011;51820;48.374;10.930;2022-08-21T12:38:39;7.45;;;2.20;;
65234;SDS011;51820;48.374;10.930;2022-08-21T12:41:17;6.13;;;2.27;;
65234;SDS011;51820;48.374;10.930;2022-08-21T12:43:51;7.35;;;2.30;;
65234;SDS011;51820;48.374;10.930;2022-08-21T12:46:25;6.50;;;2.40;;
65234;SDS011;51820;48.374;10.930;2022-08-21T12:49:00;7.45;;;2.13;;
65234;SDS011;51820;48.374;10.930;2022-08-21T12:51:37;5.95;;;2.08;;
65234;SDS011;51820;48.374;10.930;2022-08-21T12:54:23;5.40;;;2.00;;
65234;SDS011;51820;48.374;10.930;2022-08-21T12:56:58;7.57;;;2.20;;
65234;SDS011;51820;48.374;10.930;2022-08-21T12:59:28;5.00;;;2.15;;
65234;SDS011;51820;48.374;10.930;2022-08-21T13:01:58;7.13;;;2.40;;
65234;SDS011;51820;48.374;10.930;2022-08-21T13:04:33;9.75;;;2.10;;
65234;SDS011;51820;48.374;10.930;2022-08-21T13:07:05;5.77;;;2.10;;
65234;SDS011;51820;48.374;10.930;2022-08-21T13:09:40;5.60;;;2.08;;
65234;SDS011;51820;48.374;10.930;2022-08-21T13:12:11;4.93;;;2.15;;
65234;SDS011;51820;48.374;10.930;2022-08-21T13:14:41;6.70;;;2.00;;
65234;SDS011;51820;48.374;10.930;2022-08-21T13:17:13;7.65;;;2.28;;
65234;SDS011;51820;48.374;10.930;2022-08-21T13:19:54;8.90;;;1.90;;
65234;SDS011;51820;48.374;10.930;2022-08-21T13:22:24;6.30;;;2.05;;
65234;SDS011;51820;48.374;10.930;2022-08-21T13:25:02;6.22;;;2.15;;
65234;SDS011;51820;48.374;10.930;2022-08-21T13:27:36;6.40;;;2.63;;
65234;SDS011;51820;48.374;10.930;2022-08-21T13:30:06;6.53;;;2.30;;
65234;SDS011;51820;48.374;10.930;2022-08-21T13:32:39;5.73;;;2.40;;
65234;SDS011;51820;48.374;10.930;2022-08-21T13:35:13;5.70;;;2.03;;
65234;SDS011;51820;48.374;10.930;2022-08-21T13:37:44;6.13;;;2.13;;
65234;SDS011;51820;48.374;10.930;2022-08-21T13:40:17;5.30;;;2.22;;
65234;SDS011;51820;48.374;10.930;2022-08-21T13:42:48;6.63;;;2.08;;
65234;SDS011;51820;48.374;10.930;2022-08-21T13:45:24;7.40;;;2.40;;
65234;SDS011;51820;48.374;10.930;2022-08-21T13:47:55;6.25;;;2.30;;
65234;SDS011;51820;48.374;10.930;2022-08-21T13:50:23;9.75;;;2.70;;
65234;SDS011;51820;48.374;10.930;2022-08-21T13:52:58;6.18;;;2.13;;
65234;SDS011;51820;48.374;10.930;2022-08-21T13:55:38;8.25;;;2.50;;
65234;SDS011;51820;48.374;10.930;2022-08-21T13:58:09;8.07;;;2.30;;
65234;SDS011;51820;48.374;10.930;2022-08-21T14:00:43;9.85;;;2.50;;
65234;SDS011;51820;48.374;10.930;2022-08-21T14:03:22;11.88;;;2.58;;
65234;SDS011;51820;48.374;10.930;2022-08-21T14:05:55;5.95;;;2.30;;
65234;SDS011;51820;48.374;10.930;2022-08-21T14:08:27;10.73;;;2.40;;
65234;SDS011;51820;48.374;10.930;2022-08-21T14:11:02;12.93;;;2.20;;
65234;SDS011;51820;48.374;10.930;2022-08-21T14:13:36;10.02;;;2.03;;
65234;SDS011;51820;48.374;10.930;2022-08-21T14:16:11;7.40;;;2.20;;
65234;SDS011;51820;48.374;10.930;2022-08-21T14:18:43;7.45;;;2.20;;
65234;SDS011;51820;48.374;10.930;2022-08-21T14:21:24;9.18;;;2.33;;
65234;SDS011;51820;48.374;10.930;2022-08-21T14:24:05;9.70;;;2.20;;
65234;SDS011;51820;48.374;10.930;2022-08-21T14:26:37;12.63;;;2.40;;
65234;SDS011;51820;48.374;10.930;2022-08-21T14:29:13;5.40;;;1.75;;
65234;SDS011;51820;48.374;10.930;2022-08-21T14:31:48;5.63;;;1.80;;
65234;SDS011;51820;48.374;10.930;2022-08-21T14:34:17;7.00;;;2.15;;
65234;SDS011;51820;48.374;10.930;2022-08-21T14:36:47;13.60;;;3.43;;
65234;SDS011;51820;48.374;10.930;2022-08-21T14:39:16;10.18;;;2.58;;
65234;SDS011;51820;48.374;10.930;2022-08-21T14:41:46;4.78;;;1.90;;
65234;SDS011;51820;48.374;10.930;2022-08-21T14:44:15;10.45;;;2.50;;
65234;SDS011;51820;48.374;10.930;2022-08-21T14:46:45;7.32;;;2.10;;
65234;SDS011;51820;48.374;10.930;2022-08-21T14:49:22;11.10;;;2.37;;
65234;SDS011;51820;48.374;10.930;2022-08-21T14:51:53;7.05;;;2.72;;
65234;SDS011;51820;48.374;10.930;2022-08-21T14:54:24;5.50;;;2.50;;
65234;SDS011;51820;48.374;10.930;2022-08-21T14:56:59;6.75;;;2.38;;
65234;SDS011;51820;48.374;10.930;2022-08-21T14:59:31;9.98;;;2.95;;
65234;SDS011;51820;48.374;10.930;2022-08-21T15:02:00;9.90;;;2.73;;
65234;SDS011;51820;48.374;10.930;2022-08-21T15:04:30;9.07;;;2.83;;